sensor_id;sensor_type;location;lat;lon;timestamp;P1;durP1;ratioP1;P2;durP2;ratioP2
13455;SDS011;6800;50.940;6.940;2023-04-28T00:02:07;6.63;;;3.80;;
13455;SDS011;6800;50.940;6.940;2023-04-28T00:06:09;6.67;;;3.97;;
13455;SDS011;6800;50.940;6.940;2023-04-28T00:10:11;6.13;;;4.03;;
13455;SDS011;6800;50.940;6.940;2023-04-28T00:14:12;7.00;;;3.97;;
13455;SDS011;6800;50.940;6.940;2023-04-28T00:18:14;5.30;;;3.57;;
13455;SDS011;6800;50.940;6.940;2023-04-28T00:22:16;4.83;;;3.90;;
13455;SDS011;6800;50.940;6.940;2023-04-28T00:26:17;7.73;;;4.10;;
13455;SDS011;6800;50.940;6.940;2023-04-28T00:30:19;7.83;;;4.03;;
13455;SDS011;6800;50.940;6.940;2023-04-28T00:34:20;5.60;;;4.20;;
13455;SDS011;6800;50.940;6.940;2023-04-28T00:38:21;6.23;;;3.90;;
13455;SDS011;6800;50.940;6.940;2023-04-28T00:42:25;5.43;;;4.03;;
13455;SDS011;6800;50.940;6.940;2023-04-28T00:46:28;5.23;;;4.10;;
13455;SDS011;6800;50.940;6.940;2023-04-28T00:50:32;5.80;;;4.17;;
13455;SDS011;6800;50.940;6.940;2023-04-28T00:54:33;7.87;;;4.23;;
13455;SDS011;6800;50.940;6.940;2023-04-28T00:58:35;8.10;;;4.07;;
13455;SDS011;6800;50.940;6.940;2023-04-28T01:02:37;5.30;;;3.73;;
13455;SDS011;6800;50.940;6.940;2023-04-28T01:06:39;7.53;;;4.73;;
13455;SDS011;6800;50.940;6.940;2023-04-28T01:10:42;7.20;;;4.47;;
13455;SDS011;6800;50.940;6.940;2023-04-28T01:14:44;6.00;;;4.50;;
13455;SDS011;6800;50.940;6.940;2023-04-28T01:18:46;10.53;;;5.17;;
13455;SDS011;6800;50.940;6.940;2023-04-28T01:22:48;7.80;;;5.03;;
13455;SDS011;6800;50.940;6.940;2023-04-28T01:26:49;7.40;;;6.20;;
13455;SDS011;6800;50.940;6.940;2023-04-28T01:30:51;7.43;;;6.47;;
13455;SDS011;6800;50.940;6.940;2023-04-28T01:34:52;8.13;;;7.33;;
13455;SDS011;6800;50.940;6.940;2023-04-28T01:38:54;9.03;;;6.60;;
13455;SDS011;6800;50.940;6.940;2023-04-28T01:42:55;9.40;;;6.73;;
13455;SDS011;6800;50.940;6.940;2023-04-28T01:46:57;9.27;;;6.90;;
13455;SDS011;6800;50.940;6.940;2023-04-28T01:50:58;7.97;;;7.17;;
13455;SDS011;6800;50.940;6.940;2023-04-28T01:54:59;8.87;;;7.97;;
13455;SDS011;6800;50.940;6.940;2023-04-28T01:59:01;8.30;;;7.40;;
13455;SDS011;6800;50.940;6.940;2023-04-28T02:03:02;9.00;;;7.03;;
13455;SDS011;6800;50.940;6.940;2023-04-28T02:07:04;9.50;;;5.93;;
13455;SDS011;6800;50.940;6.940;2023-04-28T02:11:06;9.03;;;5.73;;
13455;SDS011;6800;50.940;6.940;2023-04-28T02:15:08;7.47;;;6.17;;
13455;SDS011;6800;50.940;6.940;2023-04-28T02:19:09;7.37;;;6.03;;
13455;SDS011;6800;50.940;6.940;2023-04-28T02:23:11;8.73;;;5.50;;
13455;SDS011;6800;50.940;6.940;2023-04-28T02:27:12;6.50;;;5.50;;
13455;SDS011;6800;50.940;6.940;2023-04-28T02:31:14;6.57;;;5.70;;
13455;SDS011;6800;50.940;6.940;2023-04-28T02:35:15;8.03;;;6.00;;
13455;SDS011;6800;50.940;6.940;2023-04-28T02:39:17;8.23;;;6.50;;
13455;SDS011;6800;50.940;6.940;2023-04-28T02:43:18;7.93;;;6.40;;
13455;SDS011;6800;50.940;6.940;2023-04-28T02:47:20;8.10;;;6.23;;
13455;SDS011;6800;50.940;6.940;2023-04-28T02:51:21;7.93;;;5.90;;
13455;SDS011;6800;50.940;6.940;2023-04-28T02:55:22;9.87;;;5.90;;
13455;SDS011;6800;50.940;6.940;2023-04-28T02:59:24;7.27;;;6.57;;
13455;SDS011;6800;50.940;6.940;2023-04-28T03:03:27;9.70;;;6.13;;
13455;SDS011;6800;50.940;6.940;2023-04-28T03:07:28;6.83;;;6.23;;
13455;SDS011;6800;50.940;6.940;2023-04-28T03:11:30;8.93;;;5.80;;
13455;SDS011;6800;50.940;6.940;2023-04-28T03:15:31;7.77;;;6.90;;
13455;SDS011;6800;50.940;6.940;2023-04-28T03:19:33;8.13;;;5.90;;
13455;SDS011;6800;50.940;6.940;2023-04-28T03:23:34;9.73;;;6.07;;
13455;SDS011;6800;50.940;6.940;2023-04-28T03:27:35;7.70;;;6.23;;
13455;SDS011;6800;50.940;6.940;2023-04-28T03:31:37;8.27;;;6.67;;
13455;SDS011;6800;50.940;6.940;2023-04-28T03:35:38;8.00;;;6.57;;
13455;SDS011;6800;50.940;6.940;2023-04-28T03:39:39;10.90;;;7.20;;
13455;SDS011;6800;50.940;6.940;2023-04-28T03:43:41;10.53;;;7.10;;
13455;SDS011;6800;50.940;6.940;2023-04-28T03:47:42;9.27;;;7.00;;
13455;SDS011;6800;50.940;6.940;2023-04-28T03:51:44;11.60;;;7.90;;
13455;SDS011;6800;50.940;6.940;2023-04-28T03:55:45;9.57;;;7.97;;
13455;SDS011;6800;50.940;6.940;2023-04-28T03:59:46;10.10;;;8.97;;
13455;SDS011;6800;50.940;6.940;2023-04-28T04:03:48;10.83;;;8.27;;
13455;SDS011;6800;50.940;6.940;2023-04-28T04:07:49;9.27;;;8.37;;
13455;SDS011;6800;50.940;6.940;2023-04-28T04:11:51;10.43;;;9.10;;
13455;SDS011;6800;50.940;6.940;2023-04-28T04:15:52;11.47;;;8.47;;
13455;SDS011;6800;50.940;6.940;2023-04-28T04:19:54;9.63;;;8.63;;
13455;SDS011;6800;50.940;6.940;2023-04-28T04:23:55;11.03;;;8.90;;
13455;SDS011;6800;50.940;6.940;2023-04-28T04:27:57;9.00;;;8.10;;
13455;SDS011;6800;50.940;6.940;2023-04-28T04:31:59;9.33;;;7.90;;
13455;SDS011;6800;50.940;6.940;2023-04-28T04:36:00;8.90;;;7.73;;
13455;SDS011;6800;50.940;6.940;2023-04-28T04:40:02;8.87;;;7.27;;
13455;SDS011;6800;50.940;6.940;2023-04-28T04:44:03;10.77;;;7.93;;
13455;SDS011;6800;50.940;6.940;2023-04-28T04:48:05;8.57;;;7.70;;
13455;SDS011;6800;50.940;6.940;2023-04-28T04:52:07;10.77;;;8.50;;
13455;SDS011;6800;50.940;6.940;2023-04-28T04:56:08;12.70;;;7.83;;
13455;SDS011;6800;50.940;6.940;2023-04-28T05:00:10;8.13;;;7.37;;
13455;SDS011;6800;50.940;6.940;2023-04-28T05:04:12;8.70;;;6.70;;
13455;SDS011;6800;50.940;6.940;2023-04-28T05:08:13;10.60;;;6.97;;
13455;SDS011;6800;50.940;6.940;2023-04-28T05:12:15;10.87;;;7.40;;
13455;SDS011;6800;50.940;6.940;2023-04-28T05:16:17;7.93;;;6.80;;
13455;SDS011;6800;50.940;6.940;2023-04-28T05:20:18;9.20;;;7.13;;
13455;SDS011;6800;50.940;6.940;2023-04-28T05:24:23;10.37;;;7.30;;
13455;SDS011;6800;50.940;6.940;2023-04-28T05:28:24;10.67;;;7.00;;
13455;SDS011;6800;50.940;6.940;2023-04-28T05:32:26;8.57;;;7.07;;
13455;SDS011;6800;50.940;6.940;2023-04-28T05:36:27;9.43;;;6.90;;
13455;SDS011;6800;50.940;6.940;2023-04-28T05:40:28;12.77;;;7.83;;
13455;SDS011;6800;50.940;6.940;2023-04-28T05:44:30;8.90;;;8.00;;
13455;SDS011;6800;50.940;6.940;2023-04-28T05:48:31;9.87;;;8.07;;
13455;SDS011;6800;50.940;6.940;2023-04-28T05:52:33;12.30;;;8.70;;
13455;SDS011;6800;50.940;6.940;2023-04-28T05:56:34;9.50;;;8.43;;
13455;SDS011;6800;50.940;6.940;2023-04-28T06:00:36;8.40;;;7.60;;
13455;SDS011;6800;50.940;6.940;2023-04-28T06:04:37;9.23;;;8.30;;
13455;SDS011;6800;50.940;6.940;2023-04-28T06:08:39;9.03;;;8.17;;
13455;SDS011;6800;50.940;6.940;2023-04-28T06:12:41;10.17;;;8.17;;
13455;SDS011;6800;50.940;6.940;2023-04-28T06:16:42;9.10;;;7.97;;
13455;SDS011;6800;50.940;6.940;2023-04-28T06:20:44;9.07;;;8.17;;
13455;SDS011;6800;50.940;6.940;2023-04-28T06:24:45;8.93;;;7.93;;
13455;SDS011;6800;50.940;6.940;2023-04-28T06:28:47;11.13;;;8.20;;
13455;SDS011;6800;50.940;6.940;2023-04-28T06:32:49;9.80;;;8.37;;
13455;SDS011;6800;50.940;6.940;2023-04-28T06:36:50;8.40;;;7.50;;
13455;SDS011;6800;50.940;6.940;2023-04-28T06:40:52;8.47;;;7.67;;
13455;SDS011;6800;50.940;6.940;2023-04-28T06:44:53;8.37;;;7.57;;
13455;SDS011;6800;50.940;6.940;2023-04-28T06:48:55;9.23;;;7.43;;
13455;SDS011;6800;50.940;6.940;2023-04-28T06:52:56;9.20;;;8.07;;
13455;SDS011;6800;50.940;6.940;2023-04-28T06:56:58;12.43;;;7.77;;
13455;SDS011;6800;50.940;6.940;2023-04-28T07:01:00;7.93;;;7.17;;
13455;SDS011;6800;50.940;6.940;2023-04-28T07:05:03;7.97;;;6.97;;
13455;SDS011;6800;50.940;6.940;2023-04-28T07:09:05;8.47;;;7.10;;
13455;SDS011;6800;50.940;6.940;2023-04-28T07:13:06;7.70;;;6.97;;
13455;SDS011;6800;50.940;6.940;2023-04-28T07:17:08;8.23;;;7.17;;
13455;SDS011;6800;50.940;6.940;2023-04-28T07:21:09;10.53;;;8.17;;
13455;SDS011;6800;50.940;6.940;2023-04-28T07:25:11;7.77;;;7.07;;
13455;SDS011;6800;50.940;6.940;2023-04-28T07:29:12;7.70;;;7.00;;
13455;SDS011;6800;50.940;6.940;2023-04-28T07:33:14;11.33;;;8.13;;
13455;SDS011;6800;50.940;6.940;2023-04-28T07:37:16;8.40;;;7.10;;
13455;SDS011;6800;50.940;6.940;2023-04-28T07:41:18;8.67;;;7.67;;
13455;SDS011;6800;50.940;6.940;2023-04-28T07:45:20;9.60;;;7.00;;
13455;SDS011;6800;50.940;6.940;2023-04-28T07:49:21;9.20;;;7.90;;
13455;SDS011;6800;50.940;6.940;2023-04-28T07:53:23;8.97;;;7.37;;
13455;SDS011;6800;50.940;6.940;2023-04-28T07:57:24;7.17;;;6.57;;
13455;SDS011;6800;50.940;6.940;2023-04-28T08:01:26;8.13;;;7.23;;
13455;SDS011;6800;50.940;6.940;2023-04-28T08:05:27;7.67;;;6.80;;
13455;SDS011;6800;50.940;6.940;2023-04-28T08:09:29;8.13;;;7.07;;
13455;SDS011;6800;50.940;6.940;2023-04-28T08:13:31;7.17;;;6.47;;
13455;SDS011;6800;50.940;6.940;2023-04-28T08:17:33;6.70;;;6.03;;
13455;SDS011;6800;50.940;6.940;2023-04-28T08:21:34;8.13;;;5.93;;
13455;SDS011;6800;50.940;6.940;2023-04-28T08:25:36;8.13;;;6.77;;
13455;SDS011;6800;50.940;6.940;2023-04-28T08:29:37;7.97;;;6.73;;
13455;SDS011;6800;50.940;6.940;2023-04-28T08:33:40;8.70;;;6.53;;
13455;SDS011;6800;50.940;6.940;2023-04-28T08:37:44;8.87;;;7.03;;
13455;SDS011;6800;50.940;6.940;2023-04-28T08:41:46;8.23;;;6.77;;
13455;SDS011;6800;50.940;6.940;2023-04-28T08:45:47;9.30;;;6.63;;
13455;SDS011;6800;50.940;6.940;2023-04-28T08:49:49;9.70;;;6.47;;
13455;SDS011;6800;50.940;6.940;2023-04-28T08:53:52;9.60;;;7.43;;
13455;SDS011;6800;50.940;6.940;2023-04-28T08:57:58;8.30;;;7.37;;
13455;SDS011;6800;50.940;6.940;2023-04-28T09:02:01;10.07;;;7.40;;
13455;SDS011;6800;50.940;6.940;2023-04-28T09:06:02;8.63;;;7.73;;
13455;SDS011;6800;50.940;6.940;2023-04-28T09:10:14;8.53;;;7.60;;
13455;SDS011;6800;50.940;6.940;2023-04-28T09:14:19;9.60;;;8.60;;
13455;SDS011;6800;50.940;6.940;2023-04-28T09:18:22;9.43;;;8.40;;
13455;SDS011;6800;50.940;6.940;2023-04-28T09:22:26;10.67;;;9.67;;
13455;SDS011;6800;50.940;6.940;2023-04-28T09:26:46;11.37;;;10.27;;
13455;SDS011;6800;50.940;6.940;2023-04-28T09:30:55;11.37;;;10.00;;
13455;SDS011;6800;50.940;6.940;2023-04-28T09:34:57;14.23;;;12.23;;
13455;SDS011;6800;50.940;6.940;2023-04-28T09:38:59;12.70;;;11.47;;
13455;SDS011;6800;50.940;6.940;2023-04-28T09:43:01;13.30;;;12.00;;
13455;SDS011;6800;50.940;6.940;2023-04-28T09:47:21;13.03;;;11.70;;
13455;SDS011;6800;50.940;6.940;2023-04-28T09:51:22;12.80;;;11.27;;
13455;SDS011;6800;50.940;6.940;2023-04-28T09:55:25;13.57;;;12.27;;
13455;SDS011;6800;50.940;6.940;2023-04-28T09:59:28;13.00;;;11.67;;
13455;SDS011;6800;50.940;6.940;2023-04-28T10:03:30;13.70;;;12.33;;
13455;SDS011;6800;50.940;6.940;2023-04-28T10:07:32;14.27;;;12.87;;
13455;SDS011;6800;50.940;6.940;2023-04-28T10:11:35;14.93;;;12.43;;
13455;SDS011;6800;50.940;6.940;2023-04-28T10:15:37;16.93;;;15.13;;
13455;SDS011;6800;50.940;6.940;2023-04-28T10:19:39;18.63;;;16.63;;
13455;SDS011;6800;50.940;6.940;2023-04-28T10:24:03;16.67;;;15.07;;
13455;SDS011;6800;50.940;6.940;2023-04-28T10:28:08;15.67;;;14.17;;
13455;SDS011;6800;50.940;6.940;2023-04-28T10:32:23;14.00;;;12.70;;
13455;SDS011;6800;50.940;6.940;2023-04-28T10:40:55;14.17;;;12.57;;
13455;SDS011;6800;50.940;6.940;2023-04-28T10:45:02;12.47;;;11.30;;
13455;SDS011;6800;50.940;6.940;2023-04-28T10:49:04;13.30;;;12.10;;
13455;SDS011;6800;50.940;6.940;2023-04-28T10:53:06;14.77;;;10.60;;
13455;SDS011;6800;50.940;6.940;2023-04-28T10:57:14;10.67;;;9.57;;
13455;SDS011;6800;50.940;6.940;2023-04-28T11:05:28;10.00;;;9.00;;
13455;SDS011;6800;50.940;6.940;2023-04-28T11:13:33;9.90;;;8.90;;
13455;SDS011;6800;50.940;6.940;2023-04-28T11:17:40;9.05;;;8.15;;
13455;SDS011;6800;50.940;6.940;2023-04-28T11:21:42;8.82;;;7.97;;
13455;SDS011;6800;50.940;6.940;2023-04-28T11:25:53;9.23;;;7.80;;
13455;SDS011;6800;50.940;6.940;2023-04-28T11:29:55;9.00;;;8.20;;
13455;SDS011;6800;50.940;6.940;2023-04-28T11:34:10;8.68;;;7.78;;
13455;SDS011;6800;50.940;6.940;2023-04-28T11:38:12;8.32;;;7.28;;
13455;SDS011;6800;50.940;6.940;2023-04-28T11:42:13;9.45;;;7.22;;
13455;SDS011;6800;50.940;6.940;2023-04-28T11:46:18;7.78;;;7.07;;
13455;SDS011;6800;50.940;6.940;2023-04-28T11:50:34;7.72;;;7.00;;
13455;SDS011;6800;50.940;6.940;2023-04-28T11:54:36;8.18;;;7.45;;
13455;SDS011;6800;50.940;6.940;2023-04-28T11:58:38;7.55;;;6.93;;
13455;SDS011;6800;50.940;6.940;2023-04-28T12:02:40;6.93;;;6.20;;
13455;SDS011;6800;50.940;6.940;2023-04-28T12:06:42;8.57;;;7.70;;
13455;SDS011;6800;50.940;6.940;2023-04-28T12:10:52;8.20;;;7.53;;
13455;SDS011;6800;50.940;6.940;2023-04-28T12:15:13;6.90;;;6.32;;
13455;SDS011;6800;50.940;6.940;2023-04-28T12:19:14;8.02;;;7.20;;
13455;SDS011;6800;50.940;6.940;2023-04-28T12:23:27;7.00;;;6.40;;
13455;SDS011;6800;50.940;6.940;2023-04-28T12:27:36;6.93;;;6.32;;
13455;SDS011;6800;50.940;6.940;2023-04-28T12:31:46;7.03;;;6.47;;
13455;SDS011;6800;50.940;6.940;2023-04-28T12:35:53;7.47;;;6.78;;
13455;SDS011;6800;50.940;6.940;2023-04-28T12:39:56;7.38;;;6.78;;
13455;SDS011;6800;50.940;6.940;2023-04-28T12:43:58;7.35;;;6.82;;
13455;SDS011;6800;50.940;6.940;2023-04-28T12:47:59;8.32;;;7.50;;
13455;SDS011;6800;50.940;6.940;2023-04-28T12:52:02;7.40;;;6.80;;
13455;SDS011;6800;50.940;6.940;2023-04-28T12:56:04;8.75;;;8.05;;
13455;SDS011;6800;50.940;6.940;2023-04-28T13:00:06;8.00;;;7.07;;
13455;SDS011;6800;50.940;6.940;2023-04-28T13:04:08;7.97;;;6.97;;
13455;SDS011;6800;50.940;6.940;2023-04-28T13:08:10;7.93;;;7.18;;
13455;SDS011;6800;50.940;6.940;2023-04-28T13:12:12;9.52;;;7.45;;
13455;SDS011;6800;50.940;6.940;2023-04-28T13:16:14;7.57;;;6.78;;
13455;SDS011;6800;50.940;6.940;2023-04-28T13:20:17;7.32;;;6.72;;
13455;SDS011;6800;50.940;6.940;2023-04-28T13:24:18;6.97;;;6.38;;
13455;SDS011;6800;50.940;6.940;2023-04-28T13:28:20;7.88;;;7.18;;
13455;SDS011;6800;50.940;6.940;2023-04-28T13:32:21;7.45;;;6.30;;
13455;SDS011;6800;50.940;6.940;2023-04-28T13:36:23;6.18;;;5.68;;
13455;SDS011;6800;50.940;6.940;2023-04-28T13:40:24;6.30;;;5.80;;
13455;SDS011;6800;50.940;6.940;2023-04-28T13:44:25;7.60;;;6.88;;
13455;SDS011;6800;50.940;6.940;2023-04-28T13:48:27;7.65;;;7.05;;
13455;SDS011;6800;50.940;6.940;2023-04-28T13:52:29;7.50;;;6.90;;
13455;SDS011;6800;50.940;6.940;2023-04-28T13:56:30;7.95;;;7.35;;
13455;SDS011;6800;50.940;6.940;2023-04-28T14:00:33;6.43;;;5.93;;
13455;SDS011;6800;50.940;6.940;2023-04-28T14:04:35;6.05;;;5.55;;
13455;SDS011;6800;50.940;6.940;2023-04-28T14:08:37;5.95;;;5.55;;
13455;SDS011;6800;50.940;6.940;2023-04-28T14:12:38;5.30;;;4.90;;
13455;SDS011;6800;50.940;6.940;2023-04-28T14:16:39;5.10;;;4.60;;
13455;SDS011;6800;50.940;6.940;2023-04-28T14:20:41;5.40;;;5.00;;
13455;SDS011;6800;50.940;6.940;2023-04-28T14:24:42;3.03;;;2.67;;
13455;SDS011;6800;50.940;6.940;2023-04-28T14:28:44;3.03;;;2.22;;
13455;SDS011;6800;50.940;6.940;2023-04-28T14:32:45;2.90;;;2.65;;
13455;SDS011;6800;50.940;6.940;2023-04-28T14:36:47;2.13;;;2.03;;
13455;SDS011;6800;50.940;6.940;2023-04-28T14:40:49;2.10;;;2.00;;
13455;SDS011;6800;50.940;6.940;2023-04-28T14:44:50;2.17;;;2.08;;
13455;SDS011;6800;50.940;6.940;2023-04-28T14:48:54;2.63;;;2.38;;
13455;SDS011;6800;50.940;6.940;2023-04-28T14:52:56;2.15;;;2.05;;
13455;SDS011;6800;50.940;6.940;2023-04-28T14:57:05;2.42;;;2.20;;
13455;SDS011;6800;50.940;6.940;2023-04-28T15:01:07;2.20;;;2.00;;
13455;SDS011;6800;50.940;6.940;2023-04-28T15:05:09;2.08;;;1.98;;
13455;SDS011;6800;50.940;6.940;2023-04-28T15:09:11;2.92;;;2.17;;
13455;SDS011;6800;50.940;6.940;2023-04-28T15:13:13;2.42;;;2.22;;
13455;SDS011;6800;50.940;6.940;2023-04-28T15:17:14;2.40;;;2.20;;
13455;SDS011;6800;50.940;6.940;2023-04-28T15:21:16;2.13;;;2.03;;
13455;SDS011;6800;50.940;6.940;2023-04-28T15:25:18;2.50;;;2.30;;
13455;SDS011;6800;50.940;6.940;2023-04-28T15:29:19;2.28;;;2.17;;
13455;SDS011;6800;50.940;6.940;2023-04-28T15:33:21;2.78;;;2.58;;
13455;SDS011;6800;50.940;6.940;2023-04-28T15:41:47;2.17;;;1.98;;
13455;SDS011;6800;50.940;6.940;2023-04-28T15:45:49;2.75;;;2.17;;
13455;SDS011;6800;50.940;6.940;2023-04-28T15:49:51;5.30;;;2.38;;
13455;SDS011;6800;50.940;6.940;2023-04-28T15:53:52;10.05;;;2.53;;
13455;SDS011;6800;50.940;6.940;2023-04-28T15:57:55;7.10;;;2.80;;
13455;SDS011;6800;50.940;6.940;2023-04-28T16:01:57;4.78;;;2.85;;
13455;SDS011;6800;50.940;6.940;2023-04-28T16:05:58;4.78;;;3.03;;
13455;SDS011;6800;50.940;6.940;2023-04-28T16:10:01;6.60;;;3.45;;
13455;SDS011;6800;50.940;6.940;2023-04-28T16:14:02;13.70;;;3.38;;
13455;SDS011;6800;50.940;6.940;2023-04-28T16:18:04;8.73;;;3.70;;
13455;SDS011;6800;50.940;6.940;2023-04-28T16:22:05;12.52;;;3.85;;
13455;SDS011;6800;50.940;6.940;2023-04-28T16:26:07;11.95;;;3.85;;
13455;SDS011;6800;50.940;6.940;2023-04-28T16:30:08;8.63;;;3.10;;
13455;SDS011;6800;50.940;6.940;2023-04-28T16:34:10;10.30;;;3.88;;
13455;SDS011;6800;50.940;6.940;2023-04-28T16:38:12;7.53;;;3.53;;
13455;SDS011;6800;50.940;6.940;2023-04-28T16:42:13;5.37;;;3.03;;
13455;SDS011;6800;50.940;6.940;2023-04-28T16:46:15;5.00;;;2.97;;
13455;SDS011;6800;50.940;6.940;2023-04-28T16:50:16;3.73;;;2.90;;
13455;SDS011;6800;50.940;6.940;2023-04-28T16:54:18;2.40;;;2.20;;
13455;SDS011;6800;50.940;6.940;2023-04-28T16:58:19;2.73;;;2.40;;
13455;SDS011;6800;50.940;6.940;2023-04-28T17:02:20;3.30;;;3.00;;
13455;SDS011;6800;50.940;6.940;2023-04-28T17:06:22;4.47;;;3.30;;
13455;SDS011;6800;50.940;6.940;2023-04-28T17:10:24;1.60;;;1.50;;
13455;SDS011;6800;50.940;6.940;2023-04-28T17:14:26;4.15;;;1.63;;
13455;SDS011;6800;50.940;6.940;2023-04-28T17:18:27;2.60;;;2.40;;
13455;SDS011;6800;50.940;6.940;2023-04-28T17:22:29;3.13;;;2.25;;
13455;SDS011;6800;50.940;6.940;2023-04-28T17:26:31;2.07;;;1.70;;
13455;SDS011;6800;50.940;6.940;2023-04-28T17:30:36;1.83;;;1.53;;
13455;SDS011;6800;50.940;6.940;2023-04-28T17:34:38;2.93;;;2.30;;
13455;SDS011;6800;50.940;6.940;2023-04-28T17:38:40;7.30;;;4.20;;
13455;SDS011;6800;50.940;6.940;2023-04-28T17:42:41;3.73;;;3.27;;
13455;SDS011;6800;50.940;6.940;2023-04-28T17:46:43;2.53;;;1.60;;
13455;SDS011;6800;50.940;6.940;2023-04-28T17:50:44;1.30;;;1.20;;
13455;SDS011;6800;50.940;6.940;2023-04-28T17:54:46;1.67;;;1.50;;
13455;SDS011;6800;50.940;6.940;2023-04-28T17:58:48;1.63;;;1.53;;
13455;SDS011;6800;50.940;6.940;2023-04-28T18:02:50;2.20;;;1.70;;
13455;SDS011;6800;50.940;6.940;2023-04-28T18:06:52;2.23;;;2.03;;
13455;SDS011;6800;50.940;6.940;2023-04-28T18:10:55;2.50;;;1.70;;
13455;SDS011;6800;50.940;6.940;2023-04-28T18:14:57;1.63;;;1.50;;
13455;SDS011;6800;50.940;6.940;2023-04-28T18:18:58;2.20;;;1.50;;
13455;SDS011;6800;50.940;6.940;2023-04-28T18:22:59;3.27;;;2.60;;
13455;SDS011;6800;50.940;6.940;2023-04-28T18:27:02;2.47;;;1.93;;
13455;SDS011;6800;50.940;6.940;2023-04-28T18:31:04;2.27;;;1.97;;
13455;SDS011;6800;50.940;6.940;2023-04-28T18:35:06;2.73;;;2.30;;
13455;SDS011;6800;50.940;6.940;2023-04-28T18:39:08;3.33;;;2.30;;
13455;SDS011;6800;50.940;6.940;2023-04-28T18:43:10;3.00;;;2.67;;
13455;SDS011;6800;50.940;6.940;2023-04-28T18:47:11;2.47;;;2.10;;
13455;SDS011;6800;50.940;6.940;2023-04-28T18:51:13;2.33;;;2.13;;
13455;SDS011;6800;50.940;6.940;2023-04-28T18:55:14;2.50;;;2.30;;
13455;SDS011;6800;50.940;6.940;2023-04-28T18:59:16;2.43;;;2.23;;
13455;SDS011;6800;50.940;6.940;2023-04-28T19:03:17;2.47;;;2.30;;
13455;SDS011;6800;50.940;6.940;2023-04-28T19:07:19;2.53;;;2.30;;
13455;SDS011;6800;50.940;6.940;2023-04-28T19:11:21;2.70;;;2.50;;
13455;SDS011;6800;50.940;6.940;2023-04-28T19:15:23;3.83;;;2.63;;
13455;SDS011;6800;50.940;6.940;2023-04-28T19:19:25;4.10;;;2.90;;
13455;SDS011;6800;50.940;6.940;2023-04-28T19:23:27;2.97;;;2.67;;
13455;SDS011;6800;50.940;6.940;2023-04-28T19:27:30;2.63;;;2.43;;
13455;SDS011;6800;50.940;6.940;2023-04-28T19:31:33;3.63;;;2.90;;
13455;SDS011;6800;50.940;6.940;2023-04-28T19:35:34;3.03;;;2.70;;
13455;SDS011;6800;50.940;6.940;2023-04-28T19:39:36;4.20;;;2.77;;
13455;SDS011;6800;50.940;6.940;2023-04-28T19:43:37;3.20;;;2.90;;
13455;SDS011;6800;50.940;6.940;2023-04-28T19:47:38;4.50;;;2.90;;
13455;SDS011;6800;50.940;6.940;2023-04-28T19:51:40;3.23;;;2.93;;
13455;SDS011;6800;50.940;6.940;2023-04-28T19:55:41;4.57;;;3.30;;
13455;SDS011;6800;50.940;6.940;2023-04-28T19:59:43;3.10;;;2.80;;
13455;SDS011;6800;50.940;6.940;2023-04-28T20:03:45;3.83;;;3.50;;
13455;SDS011;6800;50.940;6.940;2023-04-28T20:07:47;3.90;;;3.23;;
13455;SDS011;6800;50.940;6.940;2023-04-28T20:11:50;3.63;;;3.17;;
13455;SDS011;6800;50.940;6.940;2023-04-28T20:15:51;2.70;;;2.50;;
13455;SDS011;6800;50.940;6.940;2023-04-28T20:19:53;2.97;;;2.77;;
13455;SDS011;6800;50.940;6.940;2023-04-28T20:23:54;3.47;;;2.90;;
13455;SDS011;6800;50.940;6.940;2023-04-28T20:27:55;2.90;;;2.70;;
13455;SDS011;6800;50.940;6.940;2023-04-28T20:31:57;3.30;;;3.10;;
13455;SDS011;6800;50.940;6.940;2023-04-28T20:35:59;3.13;;;2.77;;
13455;SDS011;6800;50.940;6.940;2023-04-28T20:40:00;3.03;;;2.73;;
13455;SDS011;6800;50.940;6.940;2023-04-28T20:44:01;3.67;;;2.57;;
13455;SDS011;6800;50.940;6.940;2023-04-28T20:48:03;3.53;;;3.03;;
13455;SDS011;6800;50.940;6.940;2023-04-28T20:52:05;3.20;;;2.80;;
13455;SDS011;6800;50.940;6.940;2023-04-28T20:56:06;3.47;;;3.10;;
13455;SDS011;6800;50.940;6.940;2023-04-28T21:00:08;5.83;;;3.10;;
13455;SDS011;6800;50.940;6.940;2023-04-28T21:04:11;4.63;;;3.80;;
13455;SDS011;6800;50.940;6.940;2023-04-28T21:08:13;2.90;;;2.50;;
13455;SDS011;6800;50.940;6.940;2023-04-28T21:12:14;2.97;;;2.77;;
13455;SDS011;6800;50.940;6.940;2023-04-28T21:16:16;4.20;;;3.80;;
13455;SDS011;6800;50.940;6.940;2023-04-28T21:20:21;4.13;;;3.53;;
13455;SDS011;6800;50.940;6.940;2023-04-28T21:24:23;4.03;;;3.07;;
13455;SDS011;6800;50.940;6.940;2023-04-28T21:28:24;3.80;;;2.80;;
13455;SDS011;6800;50.940;6.940;2023-04-28T21:32:26;2.80;;;2.60;;
13455;SDS011;6800;50.940;6.940;2023-04-28T21:36:28;4.47;;;3.83;;
13455;SDS011;6800;50.940;6.940;2023-04-28T21:40:30;5.23;;;3.70;;
13455;SDS011;6800;50.940;6.940;2023-04-28T21:44:31;3.10;;;2.80;;
13455;SDS011;6800;50.940;6.940;2023-04-28T21:48:32;7.27;;;6.33;;
13455;SDS011;6800;50.940;6.940;2023-04-28T21:52:34;5.87;;;4.83;;
13455;SDS011;6800;50.940;6.940;2023-04-28T21:56:35;8.07;;;6.23;;
13455;SDS011;6800;50.940;6.940;2023-04-28T22:00:43;7.10;;;5.47;;
13455;SDS011;6800;50.940;6.940;2023-04-28T22:04:47;6.87;;;6.17;;
13455;SDS011;6800;50.940;6.940;2023-04-28T22:08:49;6.37;;;5.77;;
13455;SDS011;6800;50.940;6.940;2023-04-28T22:12:50;7.40;;;5.67;;
13455;SDS011;6800;50.940;6.940;2023-04-28T22:16:52;10.73;;;6.10;;
13455;SDS011;6800;50.940;6.940;2023-04-28T22:20:53;5.90;;;5.40;;
13455;SDS011;6800;50.940;6.940;2023-04-28T22:24:55;6.53;;;5.90;;
13455;SDS011;6800;50.940;6.940;2023-04-28T22:28:56;11.20;;;8.20;;
13455;SDS011;6800;50.940;6.940;2023-04-28T22:32:57;9.53;;;7.03;;
13455;SDS011;6800;50.940;6.940;2023-04-28T22:36:59;11.50;;;7.90;;
13455;SDS011;6800;50.940;6.940;2023-04-28T22:41:00;8.03;;;7.27;;
13455;SDS011;6800;50.940;6.940;2023-04-28T22:45:02;6.77;;;6.17;;
13455;SDS011;6800;50.940;6.940;2023-04-28T22:49:04;8.00;;;7.20;;
13455;SDS011;6800;50.940;6.940;2023-04-28T22:53:06;5.97;;;5.40;;
13455;SDS011;6800;50.940;6.940;2023-04-28T22:57:07;8.07;;;7.37;;
13455;SDS011;6800;50.940;6.940;2023-04-28T23:01:09;8.77;;;7.20;;
13455;SDS011;6800;50.940;6.940;2023-04-28T23:05:10;10.50;;;9.47;;
13455;SDS011;6800;50.940;6.940;2023-04-28T23:09:11;10.23;;;9.27;;
13455;SDS011;6800;50.940;6.940;2023-04-28T23:13:13;10.57;;;9.60;;
13455;SDS011;6800;50.940;6.940;2023-04-28T23:17:15;12.57;;;11.37;;
13455;SDS011;6800;50.940;6.940;2023-04-28T23:21:16;15.43;;;14.00;;
13455;SDS011;6800;50.940;6.940;2023-04-28T23:25:17;15.43;;;13.93;;
13455;SDS011;6800;50.940;6.940;2023-04-28T23:29:19;16.67;;;14.93;;
13455;SDS011;6800;50.940;6.940;2023-04-28T23:33:20;17.83;;;16.03;;
13455;SDS011;6800;50.940;6.940;2023-04-28T23:37:22;15.77;;;14.13;;
13455;SDS011;6800;50.940;6.940;2023-04-28T23:41:23;14.40;;;12.90;;
13455;SDS011;6800;50.940;6.940;2023-04-28T23:45:24;15.40;;;14.00;;
13455;SDS011;6800;50.940;6.940;2023-04-28T23:49:26;15.33;;;13.83;;
13455;SDS011;6800;50.940;6.940;2023-04-28T23:53:27;19.80;;;17.40;;
13455;SDS011;6800;50.940;6.940;2023-04-28T23:57:28;18.97;;;17.07;;
